Darstellungsparameter: Aktuell verwendete Einstellungen:
Skalierung der Graphiken ... ?
xyx+y,   Skalierungsfaktor:      Skalierung: Modus: x, Faktor: 1
Darstellungszeitraum ... ?
Vom - - bis: - -   Zeitraum: 25.12.2021 - 26.12.2021
Min/Max/Avg-Anzeige ... ?
Zeige MMA aktuell
Zeige MMA Monat
Zeige MMA alles
Zeige --A aktuell
Zeige --A Monat
Zeige --A alles
Keine MMA-Anzeige
MMA:
Keine MMA-Graphiken
MMA-Basis: 25.12.2021 - 26.12.2021
Quicknavigation für Darstellung... ?
Tage:      1T, 2T, 3T, 5T -1T -2T -3T -5T +1T +2T +3T +5T
Wochen: 1W, 2W, 3W -1W -2W -3W +1W +2W +3W
Monate: 1M, 3M, 6M -1M -3M -6M +1M +3M +6M
Jahre:    1J, 3J, 5J, 10J -1J -3J -5J -10J +1J +3J +5J +10J
Nutze für die Darstellung ... ?
Originaldaten oder Mittelwerte auf ...
Stundenbasis Tagesbasis Wochenbasis
Monatsbasis Jahresbasis      Datenbasis: Original-Daten
Darstellen als:
Statistik (Auto) Statistik J:M      Darstellung:
Zur Graphik,    zurück zur Übersicht aller Sensoren.
 
Tabellarische Datenbersicht: ?
 
Sensor: Nr:Datum:Temp:Feuchte:Taupunkt:
Aussen-T/F 1 25-12-2021 00:00:00 7.3 C 91 % 5.93 C
2 25-12-2021 00:05:00 7.3 C 92 % 6.09 C
3 25-12-2021 00:10:00 7.2 C 92 % 5.99 C
4 25-12-2021 00:15:00 7.1 C 91 % 5.73 C
5 25-12-2021 00:20:00 7.1 C 92 % 5.89 C
6 25-12-2021 00:25:00 6.9 C 92 % 5.69 C
7 25-12-2021 00:30:00 6.9 C 92 % 5.69 C
8 25-12-2021 00:35:00 6.8 C 92 % 5.59 C
9 25-12-2021 00:40:00 6.8 C 92 % 5.59 C
10 25-12-2021 00:45:00 6.8 C 93 % 5.75 C
11 25-12-2021 00:50:00 6.8 C 93 % 5.75 C
12 25-12-2021 00:55:00 6.8 C 93 % 5.75 C
13 25-12-2021 01:00:00 6.8 C 93 % 5.75 C
14 25-12-2021 01:05:00 6.8 C 93 % 5.75 C
15 25-12-2021 01:10:00 6.7 C 93 % 5.65 C
16 25-12-2021 01:15:00 6.6 C 93 % 5.55 C
17 25-12-2021 01:20:00 6.6 C 93 % 5.55 C
18 25-12-2021 01:25:00 6.5 C 93 % 5.45 C
19 25-12-2021 01:30:00 6.4 C 93 % 5.35 C
20 25-12-2021 01:35:00 6.3 C 93 % 5.25 C
21 25-12-2021 01:40:00 6.3 C 93 % 5.25 C
22 25-12-2021 01:45:00 6.3 C 93 % 5.25 C
23 25-12-2021 01:50:00 6.3 C 93 % 5.25 C
24 25-12-2021 01:55:00 6.3 C 93 % 5.25 C
25 25-12-2021 02:00:00 6.3 C 94 % 5.41 C
Sensor: Nr:Datum:Temp:Feuchte:Taupunkt:
Aussen-T/F 26 25-12-2021 02:05:00 6.3 C 94 % 5.41 C
27 25-12-2021 02:10:00 6.3 C 94 % 5.41 C
28 25-12-2021 02:15:00 6.3 C 94 % 5.41 C
29 25-12-2021 02:20:00 6.3 C 94 % 5.41 C
30 25-12-2021 02:25:00 6.4 C 94 % 5.51 C
31 25-12-2021 02:30:00 6.4 C 94 % 5.51 C
32 25-12-2021 02:35:00 6.4 C 94 % 5.51 C
33 25-12-2021 02:40:00 6.3 C 94 % 5.41 C
34 25-12-2021 02:45:00 6.3 C 94 % 5.41 C
35 25-12-2021 02:50:00 6.3 C 94 % 5.41 C
36 25-12-2021 02:55:00 6.3 C 94 % 5.41 C
37 25-12-2021 03:00:00 6.2 C 94 % 5.31 C
38 25-12-2021 03:05:00 6.2 C 94 % 5.31 C
39 25-12-2021 03:10:00 6.2 C 94 % 5.31 C
40 25-12-2021 03:15:00 6.2 C 94 % 5.31 C
41 25-12-2021 03:20:00 6.2 C 94 % 5.31 C
42 25-12-2021 03:25:00 6.2 C 94 % 5.31 C
43 25-12-2021 03:30:00 6.1 C 95 % 5.36 C
44 25-12-2021 03:35:00 6.1 C 94 % 5.21 C
45 25-12-2021 03:40:00 6.1 C 95 % 5.36 C
46 25-12-2021 03:45:00 6.1 C 95 % 5.36 C
47 25-12-2021 03:50:00 6.1 C 95 % 5.36 C
48 25-12-2021 03:55:00 6 C 95 % 5.26 C
49 25-12-2021 04:00:00 6 C 95 % 5.26 C
50 25-12-2021 04:05:00 5.9 C 95 % 5.16 C
Sensor: Nr:Datum:Temp:Feuchte:Taupunkt:
Aussen-T/F 51 25-12-2021 04:10:00 5.9 C 95 % 5.16 C
52 25-12-2021 04:15:00 5.9 C 95 % 5.16 C
53 25-12-2021 04:20:00 5.9 C 95 % 5.16 C
54 25-12-2021 04:25:00 5.9 C 95 % 5.16 C
55 25-12-2021 04:30:00 5.9 C 95 % 5.16 C
56 25-12-2021 04:35:00 5.9 C 95 % 5.16 C
57 25-12-2021 04:40:00 5.9 C 95 % 5.16 C
58 25-12-2021 04:45:00 5.9 C 95 % 5.16 C
59 25-12-2021 04:50:00 5.9 C 95 % 5.16 C
60 25-12-2021 04:55:00 5.9 C 95 % 5.16 C
61 25-12-2021 05:00:00 6 C 95 % 5.26 C
62 25-12-2021 05:05:00 6 C 95 % 5.26 C
63 25-12-2021 05:10:00 6 C 95 % 5.26 C
64 25-12-2021 05:15:00 6 C 95 % 5.26 C
65 25-12-2021 05:20:00 6 C 95 % 5.26 C
66 25-12-2021 05:25:00 6 C 95 % 5.26 C
67 25-12-2021 05:30:00 6 C 95 % 5.26 C
68 25-12-2021 05:35:00 6 C 95 % 5.26 C
69 25-12-2021 05:40:00 6 C 95 % 5.26 C
70 25-12-2021 05:45:00 6 C 95 % 5.26 C
71 25-12-2021 05:50:00 5.9 C 95 % 5.16 C
72 25-12-2021 05:55:00 5.9 C 95 % 5.16 C
73 25-12-2021 06:00:00 5.9 C 95 % 5.16 C
74 25-12-2021 06:05:00 5.9 C 95 % 5.16 C
75 25-12-2021 06:10:00 5.9 C 95 % 5.16 C
Sensor: Nr:Datum:Temp:Feuchte:Taupunkt:
Aussen-T/F 76 25-12-2021 06:15:00 6 C 95 % 5.26 C
77 25-12-2021 06:20:00 6 C 95 % 5.26 C
78 25-12-2021 06:25:00 6 C 95 % 5.26 C
79 25-12-2021 06:30:00 6 C 95 % 5.26 C
80 25-12-2021 06:35:00 5.9 C 95 % 5.16 C
81 25-12-2021 06:40:00 5.9 C 95 % 5.16 C
82 25-12-2021 06:45:00 5.9 C 95 % 5.16 C
83 25-12-2021 06:50:00 6 C 95 % 5.26 C
84 25-12-2021 06:55:00 6 C 95 % 5.26 C
85 25-12-2021 07:00:00 6.1 C 96 % 5.51 C
86 25-12-2021 07:05:00 6.2 C 96 % 5.61 C
87 25-12-2021 07:10:00 6.2 C 96 % 5.61 C
88 25-12-2021 07:15:00 6.2 C 96 % 5.61 C
89 25-12-2021 07:20:00 6.3 C 96 % 5.71 C
90 25-12-2021 07:25:00 6.2 C 96 % 5.61 C
91 25-12-2021 07:30:00 6.2 C 96 % 5.61 C
92 25-12-2021 07:35:00 6.2 C 96 % 5.61 C
93 25-12-2021 07:40:00 6.1 C 96 % 5.51 C
94 25-12-2021 07:45:00 6.1 C 96 % 5.51 C
95 25-12-2021 07:50:00 5.9 C 96 % 5.31 C
96 25-12-2021 07:55:00 5.9 C 96 % 5.31 C
97 25-12-2021 08:00:00 5.8 C 96 % 5.21 C
98 25-12-2021 08:05:00 5.8 C 96 % 5.21 C
99 25-12-2021 08:10:00 5.7 C 96 % 5.11 C
100 25-12-2021 08:15:00 5.6 C 95 % 4.86 C
Sensor: Nr:Datum:Temp:Feuchte:Taupunkt:
Aussen-T/F 101 25-12-2021 08:20:00 5.6 C 95 % 4.86 C
102 25-12-2021 08:25:00 5.4 C 95 % 4.66 C
103 25-12-2021 08:30:00 5.3 C 95 % 4.57 C
104 25-12-2021 08:35:00 5.2 C 95 % 4.47 C
105 25-12-2021 08:40:00 5.2 C 95 % 4.47 C
106 25-12-2021 08:45:00 5.1 C 95 % 4.37 C
107 25-12-2021 08:50:00 5 C 95 % 4.27 C
108 25-12-2021 08:55:00 4.9 C 95 % 4.17 C
109 25-12-2021 09:00:00 4.8 C 96 % 4.22 C
110 25-12-2021 09:05:00 4.8 C 96 % 4.22 C
111 25-12-2021 09:10:00 4.7 C 95 % 3.97 C
112 25-12-2021 09:15:00 4.6 C 95 % 3.87 C
113 25-12-2021 09:20:00 4.6 C 95 % 3.87 C
114 25-12-2021 09:25:00 4.4 C 95 % 3.67 C
115 25-12-2021 09:30:00 4.3 C 95 % 3.57 C
116 25-12-2021 09:35:00 4.2 C 95 % 3.47 C
117 25-12-2021 09:40:00 4.1 C 95 % 3.37 C
118 25-12-2021 09:45:00 4.1 C 95 % 3.37 C
119 25-12-2021 09:50:00 4 C 95 % 3.27 C
120 25-12-2021 09:55:00 3.9 C 95 % 3.17 C
121 25-12-2021 10:00:00 3.8 C 95 % 3.07 C
122 25-12-2021 10:05:00 3.8 C 95 % 3.07 C
123 25-12-2021 10:10:00 3.8 C 95 % 3.07 C
124 25-12-2021 10:15:00 3.8 C 95 % 3.07 C
125 25-12-2021 10:20:00 3.8 C 95 % 3.07 C
Sensor: Nr:Datum:Temp:Feuchte:Taupunkt:
Aussen-T/F 126 25-12-2021 10:25:00 3.7 C 95 % 2.98 C
127 25-12-2021 10:30:00 3.7 C 95 % 2.98 C
128 25-12-2021 10:35:00 3.6 C 95 % 2.88 C
129 25-12-2021 10:40:00 3.5 C 95 % 2.78 C
130 25-12-2021 10:45:00 3.4 C 95 % 2.68 C
131 25-12-2021 10:50:00 3.4 C 95 % 2.68 C
132 25-12-2021 10:55:00 3.4 C 95 % 2.68 C
133 25-12-2021 11:00:00 3.3 C 95 % 2.58 C
134 25-12-2021 11:05:00 3.3 C 95 % 2.58 C
135 25-12-2021 11:10:00 3.3 C 95 % 2.58 C
136 25-12-2021 11:15:00 3.2 C 95 % 2.48 C
137 25-12-2021 11:20:00 3.2 C 95 % 2.48 C
138 25-12-2021 11:25:00 3.2 C 95 % 2.48 C
139 25-12-2021 11:30:00 3.1 C 95 % 2.38 C
140 25-12-2021 11:35:00 3.1 C 95 % 2.38 C
141 25-12-2021 11:40:00 3 C 95 % 2.28 C
142 25-12-2021 11:45:00 2.9 C 95 % 2.18 C
143 25-12-2021 11:50:00 2.8 C 95 % 2.08 C
144 25-12-2021 11:55:00 2.8 C 95 % 2.08 C
145 25-12-2021 12:00:00 2.8 C 95 % 2.08 C
146 25-12-2021 12:05:00 2.7 C 95 % 1.98 C
147 25-12-2021 12:10:00 2.7 C 95 % 1.98 C
148 25-12-2021 12:15:00 2.7 C 95 % 1.98 C
149 25-12-2021 12:20:00 2.7 C 95 % 1.98 C
150 25-12-2021 12:25:00 2.7 C 95 % 1.98 C
Sensor: Nr:Datum:Temp:Feuchte:Taupunkt:
Aussen-T/F 151 25-12-2021 12:30:00 2.6 C 95 % 1.88 C
152 25-12-2021 12:35:00 2.6 C 95 % 1.88 C
153 25-12-2021 12:40:00 2.6 C 95 % 1.88 C
154 25-12-2021 12:45:00 2.6 C 95 % 1.88 C
155 25-12-2021 12:50:00 2.5 C 95 % 1.78 C
156 25-12-2021 12:55:00 2.4 C 95 % 1.68 C
157 25-12-2021 13:00:00 2.4 C 95 % 1.68 C
158 25-12-2021 13:05:00 2.4 C 95 % 1.68 C
159 25-12-2021 13:10:00 2.4 C 95 % 1.68 C
160 25-12-2021 13:15:00 2.3 C 95 % 1.58 C
161 25-12-2021 13:20:00 2.3 C 95 % 1.58 C
162 25-12-2021 13:25:00 2.3 C 95 % 1.58 C
163 25-12-2021 13:30:00 2.2 C 95 % 1.48 C
164 25-12-2021 13:35:00 2.2 C 95 % 1.48 C
165 25-12-2021 13:40:00 2.2 C 95 % 1.48 C
166 25-12-2021 13:45:00 2.1 C 95 % 1.38 C
167 25-12-2021 13:50:00 2.1 C 95 % 1.38 C
168 25-12-2021 13:55:00 2 C 95 % 1.29 C
169 25-12-2021 14:00:00 1.9 C 95 % 1.19 C
170 25-12-2021 14:05:00 1.8 C 95 % 1.09 C
171 25-12-2021 14:10:00 1.8 C 95 % 1.09 C
172 25-12-2021 14:15:00 1.8 C 95 % 1.09 C
173 25-12-2021 14:20:00 1.7 C 95 % 0.99 C
174 25-12-2021 14:25:00 1.7 C 95 % 0.99 C
175 25-12-2021 14:30:00 1.6 C 95 % 0.89 C
Sensor: Nr:Datum:Temp:Feuchte:Taupunkt:
Aussen-T/F 176 25-12-2021 14:35:00 1.6 C 95 % 0.89 C
177 25-12-2021 14:40:00 1.6 C 95 % 0.89 C
178 25-12-2021 14:45:00 1.5 C 95 % 0.79 C
179 25-12-2021 14:50:00 1.4 C 95 % 0.69 C
180 25-12-2021 14:55:00 1.4 C 95 % 0.69 C
181 25-12-2021 15:00:00 1.3 C 95 % 0.59 C
182 25-12-2021 15:05:00 1.3 C 95 % 0.59 C
183 25-12-2021 15:10:00 1.2 C 95 % 0.49 C
184 25-12-2021 15:15:00 1.2 C 95 % 0.49 C
185 25-12-2021 15:20:00 1.2 C 95 % 0.49 C
186 25-12-2021 15:25:00 1.1 C 95 % 0.39 C
187 25-12-2021 15:30:00 1 C 95 % 0.29 C
188 25-12-2021 15:35:00 1 C 95 % 0.29 C
189 25-12-2021 15:40:00 0.9 C 95 % 0.19 C
190 25-12-2021 15:45:00 0.9 C 94 % 0.05 C
191 25-12-2021 15:50:00 0.9 C 95 % 0.19 C
192 25-12-2021 15:55:00 0.8 C 95 % 0.09 C
193 25-12-2021 16:00:00 0.8 C 95 % 0.09 C
194 25-12-2021 16:05:00 0.8 C 95 % 0.09 C
195 25-12-2021 16:10:00 0.8 C 95 % 0.09 C
196 25-12-2021 16:15:00 0.8 C 95 % 0.09 C
197 25-12-2021 16:20:00 0.8 C 95 % 0.09 C
198 25-12-2021 16:25:00 0.7 C 95 % -0.01 C
199 25-12-2021 16:30:00 0.7 C 95 % -0.01 C
200 25-12-2021 16:35:00 0.7 C 95 % -0.01 C
Sensor: Nr:Datum:Temp:Feuchte:Taupunkt:
Aussen-T/F 201 25-12-2021 16:40:00 0.7 C 95 % -0.01 C
202 25-12-2021 16:45:00 0.7 C 95 % -0.01 C
203 25-12-2021 16:50:00 0.7 C 95 % -0.01 C
204 25-12-2021 16:55:00 0.7 C 95 % -0.01 C
205 25-12-2021 17:00:00 0.7 C 95 % -0.01 C
206 25-12-2021 17:05:00 0.7 C 95 % -0.01 C
207 25-12-2021 17:10:00 0.7 C 95 % -0.01 C
208 25-12-2021 17:15:00 0.7 C 95 % -0.01 C
209 25-12-2021 17:20:00 0.6 C 95 % -0.11 C
210 25-12-2021 17:25:00 0.6 C 95 % -0.11 C
211 25-12-2021 17:30:00 0.6 C 95 % -0.11 C
212 25-12-2021 17:35:00 0.7 C 95 % -0.01 C
213 25-12-2021 17:40:00 0.6 C 95 % -0.11 C
214 25-12-2021 17:45:00 0.6 C 95 % -0.11 C
215 25-12-2021 17:50:00 0.6 C 94 % -0.25 C
216 25-12-2021 17:55:00 0.6 C 94 % -0.25 C
217 25-12-2021 18:00:00 0.5 C 94 % -0.35 C
218 25-12-2021 18:05:00 0.4 C 94 % -0.45 C
219 25-12-2021 18:10:00 0.4 C 94 % -0.45 C
220 25-12-2021 18:15:00 0.4 C 94 % -0.45 C
221 25-12-2021 18:20:00 0.4 C 94 % -0.45 C
222 25-12-2021 18:25:00 0.3 C 94 % -0.55 C
223 25-12-2021 18:30:00 0.3 C 94 % -0.55 C
224 25-12-2021 18:35:00 0.3 C 94 % -0.55 C
225 25-12-2021 18:40:00 0.3 C 94 % -0.55 C
Sensor: Nr:Datum:Temp:Feuchte:Taupunkt:
Aussen-T/F 226 25-12-2021 18:45:00 0.3 C 94 % -0.55 C
227 25-12-2021 18:50:00 0.3 C 94 % -0.55 C
228 25-12-2021 18:55:00 0.2 C 94 % -0.65 C
229 25-12-2021 19:00:00 0.2 C 94 % -0.65 C
230 25-12-2021 19:05:00 0.2 C 94 % -0.65 C
231 25-12-2021 19:10:00 0.2 C 94 % -0.65 C
232 25-12-2021 19:15:00 0.2 C 94 % -0.65 C
233 25-12-2021 19:20:00 0.2 C 94 % -0.65 C
234 25-12-2021 19:25:00 0.3 C 94 % -0.55 C
235 25-12-2021 19:30:00 0.2 C 94 % -0.65 C
236 25-12-2021 19:35:00 0.2 C 94 % -0.65 C
237 25-12-2021 19:40:00 0.2 C 94 % -0.65 C
238 25-12-2021 19:45:00 0.2 C 94 % -0.65 C
239 25-12-2021 19:50:00 0.2 C 94 % -0.65 C
240 25-12-2021 19:55:00 0.2 C 94 % -0.65 C
241 25-12-2021 20:00:00 0.2 C 94 % -0.65 C
242 25-12-2021 20:05:00 0.2 C 94 % -0.65 C
243 25-12-2021 20:10:00 0.3 C 94 % -0.55 C
244 25-12-2021 20:15:00 0.2 C 94 % -0.65 C
245 25-12-2021 20:20:00 0.2 C 94 % -0.65 C
246 25-12-2021 20:25:00 0.2 C 94 % -0.65 C
247 25-12-2021 20:30:00 0.2 C 94 % -0.65 C
248 25-12-2021 20:35:00 0.2 C 94 % -0.65 C
249 25-12-2021 20:40:00 0.2 C 94 % -0.65 C
250 25-12-2021 20:45:00 0.3 C 94 % -0.55 C
Sensor: Nr:Datum:Temp:Feuchte:Taupunkt:
Aussen-T/F 251 25-12-2021 20:50:00 0.2 C 94 % -0.65 C
252 25-12-2021 20:55:00 0.2 C 94 % -0.65 C
253 25-12-2021 21:00:00 0.2 C 94 % -0.65 C
254 25-12-2021 21:05:00 0.2 C 94 % -0.65 C
255 25-12-2021 21:10:00 0.2 C 94 % -0.65 C
256 25-12-2021 21:15:00 0.2 C 94 % -0.65 C
257 25-12-2021 21:20:00 0.2 C 94 % -0.65 C
258 25-12-2021 21:25:00 0.2 C 94 % -0.65 C
259 25-12-2021 21:30:00 0.2 C 94 % -0.65 C
260 25-12-2021 21:35:00 0.2 C 94 % -0.65 C
261 25-12-2021 21:40:00 0.2 C 94 % -0.65 C
262 25-12-2021 21:45:00 0.2 C 94 % -0.65 C
263 25-12-2021 21:50:00 0.2 C 94 % -0.65 C
264 25-12-2021 21:55:00 0.2 C 94 % -0.65 C
265 25-12-2021 22:00:00 0.2 C 94 % -0.65 C
266 25-12-2021 22:05:00 0.2 C 94 % -0.65 C
267 25-12-2021 22:10:00 0.2 C 94 % -0.65 C
268 25-12-2021 22:15:00 0.2 C 94 % -0.65 C
269 25-12-2021 22:20:00 0.2 C 94 % -0.65 C
270 25-12-2021 22:25:00 0.2 C 94 % -0.65 C
271 25-12-2021 22:30:00 0.2 C 94 % -0.65 C
272 25-12-2021 22:35:00 0.2 C 94 % -0.65 C
273 25-12-2021 22:40:00 0.2 C 94 % -0.65 C
274 25-12-2021 22:45:00 0.2 C 94 % -0.65 C
275 25-12-2021 22:50:00 0.2 C 94 % -0.65 C
Sensor: Nr:Datum:Temp:Feuchte:Taupunkt:
Aussen-T/F 276 25-12-2021 22:55:00 0.2 C 94 % -0.65 C
277 25-12-2021 23:00:00 0.2 C 94 % -0.65 C
278 25-12-2021 23:05:00 0.2 C 94 % -0.65 C
279 25-12-2021 23:10:00 0.2 C 94 % -0.65 C
280 25-12-2021 23:15:00 0.1 C 94 % -0.75 C
281 25-12-2021 23:20:00 0.1 C 94 % -0.75 C
282 25-12-2021 23:25:00 0.1 C 93 % -0.89 C
283 25-12-2021 23:30:00 0.1 C 94 % -0.75 C
284 25-12-2021 23:35:00 0.1 C 94 % -0.75 C
285 25-12-2021 23:40:00 0.1 C 93 % -0.89 C
286 25-12-2021 23:45:00 0.1 C 93 % -0.89 C
287 25-12-2021 23:50:00 0.1 C 93 % -0.89 C
288 25-12-2021 23:55:00 0.1 C 93 % -0.89 C
289 26-12-2021 00:00:00 0.1 C 93 % -0.89 C
290 26-12-2021 00:05:00 0.1 C 93 % -0.89 C
291 26-12-2021 00:10:00 0.2 C 93 % -0.79 C
292 26-12-2021 00:15:00 0.2 C 93 % -0.79 C
293 26-12-2021 00:20:00 0.2 C 94 % -0.65 C
294 26-12-2021 00:25:00 0.2 C 93 % -0.79 C
295 26-12-2021 00:30:00 0.2 C 93 % -0.79 C
296 26-12-2021 00:35:00 0.2 C 93 % -0.79 C
297 26-12-2021 00:40:00 0.2 C 93 % -0.79 C
298 26-12-2021 00:45:00 0.2 C 93 % -0.79 C
299 26-12-2021 00:50:00 0.2 C 93 % -0.79 C
300 26-12-2021 00:55:00 0.2 C 93 % -0.79 C
Sensor: Nr:Datum:Temp:Feuchte:Taupunkt:
Aussen-T/F 301 26-12-2021 01:00:00 0.2 C 94 % -0.65 C
302 26-12-2021 01:05:00 0.2 C 93 % -0.79 C
303 26-12-2021 01:10:00 0.2 C 94 % -0.65 C
304 26-12-2021 01:15:00 0.1 C 93 % -0.89 C
305 26-12-2021 01:20:00 0.1 C 93 % -0.89 C
306 26-12-2021 01:25:00 0.1 C 93 % -0.89 C
307 26-12-2021 01:30:00 0.1 C 93 % -0.89 C
308 26-12-2021 01:35:00 0.1 C 93 % -0.89 C
309 26-12-2021 01:40:00 0.1 C 93 % -0.89 C
310 26-12-2021 01:45:00 0.1 C 93 % -0.89 C
311 26-12-2021 01:50:00 0.1 C 93 % -0.89 C
312 26-12-2021 01:55:00 0 C 93 % -0.99 C
313 26-12-2021 02:00:00 0 C 93 % -0.99 C
314 26-12-2021 02:05:00 0 C 93 % -0.99 C
315 26-12-2021 02:10:00 0 C 93 % -0.99 C
316 26-12-2021 02:15:00 0 C 93 % -0.99 C
317 26-12-2021 02:20:00 0 C 93 % -0.99 C
318 26-12-2021 02:25:00 0 C 93 % -0.99 C
319 26-12-2021 02:30:00 0 C 93 % -0.99 C
320 26-12-2021 02:35:00 0 C 93 % -0.99 C
321 26-12-2021 02:40:00 0 C 93 % -0.99 C
322 26-12-2021 02:45:00 0 C 93 % -0.99 C
323 26-12-2021 02:50:00 -0.1 C 93 % -1.09 C
324 26-12-2021 02:55:00 -0.1 C 93 % -1.09 C
325 26-12-2021 03:00:00 -0.1 C 93 % -1.09 C
Sensor: Nr:Datum:Temp:Feuchte:Taupunkt:
Aussen-T/F 326 26-12-2021 03:05:00 -0.1 C 93 % -1.09 C
327 26-12-2021 03:10:00 -0.1 C 93 % -1.09 C
328 26-12-2021 03:15:00 -0.1 C 93 % -1.09 C
329 26-12-2021 03:20:00 -0.1 C 93 % -1.09 C
330 26-12-2021 03:25:00 -0.1 C 93 % -1.09 C
331 26-12-2021 03:30:00 -0.1 C 93 % -1.09 C
332 26-12-2021 03:35:00 -0.1 C 92 % -1.24 C
333 26-12-2021 03:40:00 -0.1 C 92 % -1.24 C
334 26-12-2021 03:45:00 -0.1 C 93 % -1.09 C
335 26-12-2021 03:50:00 -0.1 C 93 % -1.09 C
336 26-12-2021 03:55:00 -0.1 C 93 % -1.09 C
337 26-12-2021 04:00:00 -0.1 C 93 % -1.09 C
338 26-12-2021 04:05:00 -0.1 C 93 % -1.09 C
339 26-12-2021 04:10:00 -0.1 C 93 % -1.09 C
340 26-12-2021 04:15:00 -0.1 C 93 % -1.09 C
341 26-12-2021 04:20:00 -0.1 C 93 % -1.09 C
342 26-12-2021 04:25:00 -0.1 C 93 % -1.09 C
343 26-12-2021 04:30:00 -0.2 C 92 % -1.34 C
344 26-12-2021 04:35:00 -0.1 C 92 % -1.24 C
345 26-12-2021 04:40:00 -0.2 C 92 % -1.34 C
346 26-12-2021 04:45:00 -0.2 C 93 % -1.19 C
347 26-12-2021 04:50:00 -0.2 C 92 % -1.34 C
348 26-12-2021 04:55:00 -0.1 C 92 % -1.24 C
349 26-12-2021 05:00:00 -0.2 C 92 % -1.34 C
350 26-12-2021 05:05:00 -0.2 C 92 % -1.34 C
Sensor: Nr:Datum:Temp:Feuchte:Taupunkt:
Aussen-T/F 351 26-12-2021 05:10:00 -0.2 C 92 % -1.34 C
352 26-12-2021 05:15:00 -0.2 C 92 % -1.34 C
353 26-12-2021 05:20:00 -0.2 C 92 % -1.34 C
354 26-12-2021 05:25:00 -0.1 C 92 % -1.24 C
355 26-12-2021 05:30:00 -0.1 C 92 % -1.24 C
356 26-12-2021 05:35:00 -0.1 C 92 % -1.24 C
357 26-12-2021 05:40:00 -0.1 C 92 % -1.24 C
358 26-12-2021 05:45:00 -0.1 C 92 % -1.24 C
359 26-12-2021 05:50:00 -0.1 C 92 % -1.24 C
360 26-12-2021 05:55:00 -0.1 C 92 % -1.24 C
361 26-12-2021 06:00:00 -0.1 C 92 % -1.24 C
362 26-12-2021 06:05:00 -0.1 C 92 % -1.24 C
363 26-12-2021 06:10:00 -0.1 C 93 % -1.09 C
364 26-12-2021 06:15:00 -0.1 C 92 % -1.24 C
365 26-12-2021 06:20:00 -0.1 C 93 % -1.09 C
366 26-12-2021 06:25:00 -0.1 C 93 % -1.09 C
367 26-12-2021 06:30:00 -0.1 C 93 % -1.09 C
368 26-12-2021 06:35:00 -0.1 C 93 % -1.09 C
369 26-12-2021 06:40:00 -0.1 C 93 % -1.09 C
370 26-12-2021 06:45:00 -0.1 C 93 % -1.09 C
371 26-12-2021 06:50:00 -0.1 C 93 % -1.09 C
372 26-12-2021 06:55:00 0 C 93 % -0.99 C
373 26-12-2021 07:00:00 0 C 93 % -0.99 C
374 26-12-2021 07:05:00 0 C 93 % -0.99 C
375 26-12-2021 07:10:00 0 C 93 % -0.99 C
Sensor: Nr:Datum:Temp:Feuchte:Taupunkt:
Aussen-T/F 376 26-12-2021 07:15:00 0 C 93 % -0.99 C
377 26-12-2021 07:20:00 0 C 93 % -0.99 C
378 26-12-2021 07:25:00 0 C 93 % -0.99 C
379 26-12-2021 07:30:00 0 C 93 % -0.99 C
380 26-12-2021 07:35:00 0 C 93 % -0.99 C
381 26-12-2021 07:40:00 0 C 93 % -0.99 C
382 26-12-2021 07:45:00 0 C 93 % -0.99 C
383 26-12-2021 07:50:00 0 C 93 % -0.99 C
384 26-12-2021 07:55:00 0.1 C 93 % -0.89 C
385 26-12-2021 08:00:00 0 C 93 % -0.99 C
386 26-12-2021 08:05:00 0 C 93 % -0.99 C
387 26-12-2021 08:10:00 0.1 C 93 % -0.89 C
388 26-12-2021 08:15:00 0 C 93 % -0.99 C
389 26-12-2021 08:20:00 0 C 93 % -0.99 C
390 26-12-2021 08:25:00 0 C 93 % -0.99 C
391 26-12-2021 08:30:00 0.1 C 93 % -0.89 C
392 26-12-2021 08:35:00 0.1 C 93 % -0.89 C
393 26-12-2021 08:40:00 0.1 C 93 % -0.89 C
394 26-12-2021 08:45:00 0.1 C 93 % -0.89 C
395 26-12-2021 08:50:00 0.1 C 93 % -0.89 C
396 26-12-2021 08:55:00 0.1 C 93 % -0.89 C
397 26-12-2021 09:00:00 0.1 C 93 % -0.89 C
398 26-12-2021 09:05:00 0.1 C 93 % -0.89 C
399 26-12-2021 09:10:00 0.1 C 93 % -0.89 C
400 26-12-2021 09:15:00 0.1 C 93 % -0.89 C
Sensor: Nr:Datum:Temp:Feuchte:Taupunkt:
Aussen-T/F 401 26-12-2021 09:20:00 0.1 C 93 % -0.89 C
402 26-12-2021 09:25:00 0.1 C 93 % -0.89 C
403 26-12-2021 09:30:00 0.2 C 93 % -0.79 C
404 26-12-2021 09:35:00 0.2 C 93 % -0.79 C
405 26-12-2021 09:40:00 0.2 C 94 % -0.65 C
406 26-12-2021 09:45:00 0.2 C 93 % -0.79 C
407 26-12-2021 09:50:00 0.2 C 93 % -0.79 C
408 26-12-2021 09:55:00 0.2 C 93 % -0.79 C
409 26-12-2021 10:00:00 0.3 C 94 % -0.55 C
410 26-12-2021 10:05:00 0.3 C 94 % -0.55 C
411 26-12-2021 10:10:00 0.3 C 93 % -0.7 C
412 26-12-2021 10:15:00 0.3 C 93 % -0.7 C
413 26-12-2021 10:20:00 0.3 C 93 % -0.7 C
414 26-12-2021 10:25:00 0.3 C 93 % -0.7 C
415 26-12-2021 10:30:00 0.3 C 93 % -0.7 C
416 26-12-2021 10:35:00 0.4 C 93 % -0.6 C
417 26-12-2021 10:40:00 0.4 C 93 % -0.6 C
418 26-12-2021 10:45:00 0.4 C 93 % -0.6 C
419 26-12-2021 10:50:00 0.5 C 93 % -0.5 C
420 26-12-2021 10:55:00 0.5 C 93 % -0.5 C
421 26-12-2021 11:00:00 0.5 C 93 % -0.5 C
422 26-12-2021 11:05:00 0.5 C 93 % -0.5 C
423 26-12-2021 11:10:00 0.5 C 93 % -0.5 C
424 26-12-2021 11:15:00 0.5 C 93 % -0.5 C
425 26-12-2021 11:20:00 0.5 C 93 % -0.5 C
Sensor: Nr:Datum:Temp:Feuchte:Taupunkt:
Aussen-T/F 426 26-12-2021 11:25:00 0.6 C 93 % -0.4 C
427 26-12-2021 11:30:00 0.6 C 93 % -0.4 C
428 26-12-2021 11:35:00 0.6 C 93 % -0.4 C
429 26-12-2021 11:40:00 0.6 C 93 % -0.4 C
430 26-12-2021 11:45:00 0.6 C 93 % -0.4 C
431 26-12-2021 11:50:00 0.6 C 93 % -0.4 C
432 26-12-2021 11:55:00 0.7 C 93 % -0.3 C
433 26-12-2021 12:00:00 0.7 C 93 % -0.3 C
434 26-12-2021 12:05:00 0.7 C 93 % -0.3 C
435 26-12-2021 12:10:00 0.7 C 93 % -0.3 C
436 26-12-2021 12:15:00 0.7 C 93 % -0.3 C
437 26-12-2021 12:20:00 0.7 C 93 % -0.3 C
438 26-12-2021 12:25:00 0.7 C 93 % -0.3 C
439 26-12-2021 12:30:00 0.7 C 93 % -0.3 C
440 26-12-2021 12:35:00 0.8 C 93 % -0.2 C
441 26-12-2021 12:40:00 0.8 C 93 % -0.2 C
442 26-12-2021 12:45:00 0.8 C 94 % -0.05 C
443 26-12-2021 12:50:00 0.9 C 94 % 0.05 C
444 26-12-2021 12:55:00 0.9 C 93 % -0.1 C
445 26-12-2021 13:00:00 1 C 93 % 0 C
446 26-12-2021 13:05:00 1.1 C 93 % 0.1 C
447 26-12-2021 13:10:00 1.1 C 93 % 0.1 C
448 26-12-2021 13:15:00 1.2 C 93 % 0.2 C
449 26-12-2021 13:20:00 1.2 C 93 % 0.2 C
450 26-12-2021 13:25:00 1.3 C 93 % 0.3 C
Sensor: Nr:Datum:Temp:Feuchte:Taupunkt:
Aussen-T/F 451 26-12-2021 13:30:00 1.3 C 93 % 0.3 C
452 26-12-2021 13:35:00 1.4 C 93 % 0.4 C
453 26-12-2021 13:40:00 1.4 C 93 % 0.4 C
454 26-12-2021 13:45:00 1.4 C 93 % 0.4 C
455 26-12-2021 13:50:00 1.5 C 93 % 0.49 C
456 26-12-2021 13:55:00 1.5 C 93 % 0.49 C
457 26-12-2021 14:00:00 1.6 C 93 % 0.59 C
458 26-12-2021 14:05:00 1.6 C 93 % 0.59 C
459 26-12-2021 14:10:00 1.6 C 93 % 0.59 C
460 26-12-2021 14:15:00 1.6 C 92 % 0.44 C
461 26-12-2021 14:20:00 1.6 C 92 % 0.44 C
462 26-12-2021 14:25:00 1.6 C 92 % 0.44 C
463 26-12-2021 14:30:00 1.6 C 93 % 0.59 C
464 26-12-2021 14:35:00 1.6 C 92 % 0.44 C
465 26-12-2021 14:40:00 1.6 C 92 % 0.44 C
466 26-12-2021 14:45:00 1.6 C 92 % 0.44 C
467 26-12-2021 14:50:00 1.6 C 93 % 0.59 C
468 26-12-2021 14:55:00 1.6 C 92 % 0.44 C
469 26-12-2021 15:00:00 1.6 C 93 % 0.59 C
470 26-12-2021 15:05:00 1.6 C 93 % 0.59 C
471 26-12-2021 15:10:00 1.6 C 93 % 0.59 C
472 26-12-2021 15:15:00 1.6 C 93 % 0.59 C
473 26-12-2021 15:20:00 1.5 C 93 % 0.49 C
474 26-12-2021 15:25:00 1.5 C 93 % 0.49 C
475 26-12-2021 15:30:00 1.5 C 93 % 0.49 C
Sensor: Nr:Datum:Temp:Feuchte:Taupunkt:
Aussen-T/F 476 26-12-2021 15:35:00 1.5 C 93 % 0.49 C
477 26-12-2021 15:40:00 1.5 C 93 % 0.49 C
478 26-12-2021 15:45:00 1.4 C 93 % 0.4 C
479 26-12-2021 15:50:00 1.4 C 93 % 0.4 C
480 26-12-2021 15:55:00 1.5 C 93 % 0.49 C
481 26-12-2021 16:00:00 1.4 C 93 % 0.4 C
482 26-12-2021 16:05:00 1.4 C 93 % 0.4 C
483 26-12-2021 16:10:00 1.4 C 93 % 0.4 C
484 26-12-2021 16:15:00 1.5 C 93 % 0.49 C
485 26-12-2021 16:20:00 1.5 C 93 % 0.49 C
486 26-12-2021 16:25:00 1.5 C 93 % 0.49 C
487 26-12-2021 16:30:00 1.5 C 93 % 0.49 C
488 26-12-2021 16:35:00 1.5 C 93 % 0.49 C
489 26-12-2021 16:40:00 1.5 C 93 % 0.49 C
490 26-12-2021 16:45:00 1.5 C 93 % 0.49 C
491 26-12-2021 16:50:00 1.5 C 93 % 0.49 C
492 26-12-2021 16:55:00 1.5 C 93 % 0.49 C
493 26-12-2021 17:00:00 1.5 C 93 % 0.49 C
494 26-12-2021 17:05:00 1.4 C 93 % 0.4 C
495 26-12-2021 17:10:00 1.4 C 93 % 0.4 C
496 26-12-2021 17:15:00 1.4 C 93 % 0.4 C
497 26-12-2021 17:20:00 1.4 C 93 % 0.4 C
498 26-12-2021 17:25:00 1.4 C 93 % 0.4 C
499 26-12-2021 17:30:00 1.4 C 94 % 0.54 C
500 26-12-2021 17:35:00 1.5 C 94 % 0.64 C
Sensor: Nr:Datum:Temp:Feuchte:Taupunkt:
Aussen-T/F 501 26-12-2021 17:40:00 1.5 C 94 % 0.64 C
502 26-12-2021 17:45:00 1.5 C 94 % 0.64 C
503 26-12-2021 17:50:00 1.5 C 94 % 0.64 C
504 26-12-2021 17:55:00 1.5 C 94 % 0.64 C
505 26-12-2021 18:00:00 1.5 C 94 % 0.64 C
506 26-12-2021 18:05:00 1.5 C 94 % 0.64 C
507 26-12-2021 18:10:00 1.5 C 94 % 0.64 C
508 26-12-2021 18:15:00 1.5 C 94 % 0.64 C
509 26-12-2021 18:20:00 1.5 C 94 % 0.64 C
510 26-12-2021 18:25:00 1.5 C 94 % 0.64 C
511 26-12-2021 18:30:00 1.5 C 94 % 0.64 C
512 26-12-2021 18:35:00 1.5 C 94 % 0.64 C
513 26-12-2021 18:40:00 1.5 C 94 % 0.64 C
514 26-12-2021 18:45:00 1.5 C 94 % 0.64 C
515 26-12-2021 18:50:00 1.6 C 94 % 0.74 C
516 26-12-2021 18:55:00 1.6 C 94 % 0.74 C
517 26-12-2021 19:00:00 1.6 C 94 % 0.74 C
518 26-12-2021 19:05:00 1.6 C 94 % 0.74 C
519 26-12-2021 19:10:00 1.6 C 94 % 0.74 C
520 26-12-2021 19:15:00 1.6 C 94 % 0.74 C
521 26-12-2021 19:20:00 1.6 C 94 % 0.74 C
522 26-12-2021 19:25:00 1.6 C 94 % 0.74 C
523 26-12-2021 19:30:00 1.6 C 94 % 0.74 C
524 26-12-2021 19:35:00 1.6 C 94 % 0.74 C
525 26-12-2021 19:40:00 1.6 C 94 % 0.74 C
Sensor: Nr:Datum:Temp:Feuchte:Taupunkt:
Aussen-T/F 526 26-12-2021 19:45:00 1.6 C 94 % 0.74 C
527 26-12-2021 19:50:00 1.6 C 94 % 0.74 C
528 26-12-2021 19:55:00 1.6 C 94 % 0.74 C
529 26-12-2021 20:00:00 1.6 C 94 % 0.74 C
530 26-12-2021 20:05:00 1.6 C 95 % 0.89 C
531 26-12-2021 20:10:00 1.6 C 95 % 0.89 C
532 26-12-2021 20:15:00 1.6 C 95 % 0.89 C
533 26-12-2021 20:20:00 1.6 C 95 % 0.89 C
534 26-12-2021 20:25:00 1.6 C 95 % 0.89 C
535 26-12-2021 20:30:00 1.6 C 95 % 0.89 C
536 26-12-2021 20:35:00 1.6 C 95 % 0.89 C
537 26-12-2021 20:40:00 1.6 C 95 % 0.89 C
538 26-12-2021 20:45:00 1.6 C 95 % 0.89 C
539 26-12-2021 20:50:00 1.6 C 95 % 0.89 C
540 26-12-2021 20:55:00 1.7 C 95 % 0.99 C
541 26-12-2021 21:00:00 1.7 C 95 % 0.99 C
542 26-12-2021 21:05:00 1.7 C 95 % 0.99 C
543 26-12-2021 21:10:00 1.7 C 95 % 0.99 C
544 26-12-2021 21:15:00 1.7 C 95 % 0.99 C
545 26-12-2021 21:20:00 1.7 C 95 % 0.99 C
546 26-12-2021 21:25:00 1.7 C 95 % 0.99 C
547 26-12-2021 21:30:00 1.7 C 95 % 0.99 C
548 26-12-2021 21:35:00 1.7 C 95 % 0.99 C
549 26-12-2021 21:40:00 1.7 C 95 % 0.99 C
550 26-12-2021 21:45:00 1.7 C 95 % 0.99 C
Sensor: Nr:Datum:Temp:Feuchte:Taupunkt:
Aussen-T/F 551 26-12-2021 21:50:00 1.7 C 95 % 0.99 C
552 26-12-2021 21:55:00 1.7 C 95 % 0.99 C
553 26-12-2021 22:00:00 1.7 C 95 % 0.99 C
554 26-12-2021 22:05:00 1.7 C 95 % 0.99 C
555 26-12-2021 22:10:00 1.7 C 95 % 0.99 C
556 26-12-2021 22:15:00 1.7 C 95 % 0.99 C
557 26-12-2021 22:20:00 1.7 C 95 % 0.99 C
558 26-12-2021 22:25:00 1.7 C 95 % 0.99 C
559 26-12-2021 22:30:00 1.7 C 95 % 0.99 C
560 26-12-2021 22:35:00 1.7 C 95 % 0.99 C
561 26-12-2021 22:40:00 1.8 C 95 % 1.09 C
562 26-12-2021 22:45:00 1.8 C 95 % 1.09 C
563 26-12-2021 22:50:00 1.8 C 95 % 1.09 C
564 26-12-2021 22:55:00 1.8 C 95 % 1.09 C
565 26-12-2021 23:00:00 1.8 C 95 % 1.09 C
566 26-12-2021 23:05:00 1.8 C 95 % 1.09 C
567 26-12-2021 23:10:00 1.8 C 95 % 1.09 C
568 26-12-2021 23:15:00 1.8 C 95 % 1.09 C
569 26-12-2021 23:20:00 1.8 C 95 % 1.09 C
570 26-12-2021 23:25:00 1.8 C 95 % 1.09 C
571 26-12-2021 23:30:00 1.8 C 95 % 1.09 C
572 26-12-2021 23:35:00 1.8 C 95 % 1.09 C
573 26-12-2021 23:40:00 1.8 C 95 % 1.09 C
574 26-12-2021 23:45:00 1.8 C 95 % 1.09 C
575 26-12-2021 23:50:00 1.8 C 95 % 1.09 C
Sensor: Nr:Datum:Temp:Feuchte:Taupunkt:
Aussen-T/F 576 26-12-2021 23:55:00 1.8 C 95 % 1.09 C

Legende:
   Min
   Max


Maximal/Minimal-Werte vom 25.12.2021 - 26.12.2021

Sensor Min Max Avg
Temp
(Aussen-T/F)
-0.2 °C
26-12-2021  04:30:00
7.3 °C
25-12-2021  00:00:00
1.99 °C
Feuchte
(Aussen-T/F)
91 %
25-12-2021  00:00:00
96 %
25-12-2021  07:00:00
93.94 %
Taupunkt
(Aussen-T/F)
-1.34 C
26-12-2021  04:30:00
6.09 C
25-12-2021  00:05:00
1.12 C

Die Daten stammen von einer Davis Vantage Pro 2 Wetter-Station und werden unter Linux mit der Software wview2wettercgi und aufbereitet. Alle Angaben erfolgen ohne Gewähr für ihre Vollständigkeit oder Richtigkeit.
Kontakt: Rainer Krienke krienke@uni-koblenz.de . Meine Webseiten an der Uni Koblenz oder privat.
Version: $Revision: 0.78 $